Tropical Cyclones
[Index]
Main Index Home Page Stock Weather Photos Extreme Storms Discussion Storm News and Storm Chasing Reports Tropical Cyclones / Hurricanes / Typhoons Weather Data and Links Wild Fires / Bushfires Weather Observation Techniques Weather Picture Catalogue Tornado Pictures and Reports Stock Video Footage and DVDs for sale
Season 2015-2016 Tropical Cyclone 201601 Track Map
Season 2015-2016 Summaries (Operational Data): [AU] [SIO] [SPAC] [SH]
<<- Previous TC | 2015-2016 Season | Next TC ->>

click for intensity scale information  Lat/long Grid: Show Hide

 Date Labels: Show Hide

Operational Tropical Cyclone Data : JTWC Advisories

Name: 201601
Number: 1601

29 Jul 2015 06:00 UTC to 08 Aug 2015 00:00 UTC

    date/time    lat    long     hPa   cat  kts
2015-07-29 06    5.5   163.7                 25          
2015-07-29 12    5.5   163.7    1005         25          
2015-07-29 18    5.7   166.5                 25          
2015-07-30 00    4.3   166.2    1005         26          
2015-07-30 06    4.8   166.4    1004         25          
2015-07-30 12    5.7   166.6    1004         25          
2015-07-30 18    6.0   167.1    1004         25          
2015-07-31 00    6.7   167.5    1004         25          
2015-07-31 06    7.2   167.8    1004         25          
2015-07-31 12    7.8   167.9    1007         20          
2015-07-31 18    8.3   168.0    1004         20          
2015-08-01 00    9.1   169.7    1004         20          
2015-08-01 06    9.4   170.4    1004         25          
2015-08-01 12    9.5   171.4    1004         25          
2015-08-01 18   11.0   171.5    1003         25          
2015-08-02 00   11.4   171.2    1004         25          
2015-08-02 06   11.2   171.9    1000         30          
2015-08-02 12   11.1   172.5    1000         30          
2015-08-02 18   11.3   173.1     996    1    35          
2015-08-03 00   11.3   173.1     996    1    35          
2015-08-03 06   10.9   172.6     996    1    35          
2015-08-03 12   10.4   172.7     996    1    35          
2015-08-03 18   10.7   172.0    1000         30          
2015-08-04 06   10.6   171.1    1004         25          
2015-08-04 12   10.4   170.6    1004         25          
2015-08-04 18   11.0   169.5    1004         25          
2015-08-05 00   12.6   169.9    1004         25          
2015-08-05 06   12.7   169.3    1003                     
2015-08-05 18   12.0   170.0    1004                     
2015-08-06 06   15.0   170.0    1004                     
2015-08-06 18   16.0   170.0    1007                     
2015-08-07 00   16.0   171.0    1007                     
2015-08-07 06   15.5   170.4    1007                     
2015-08-07 12   16.0   173.0    1006                     
2015-08-07 18   15.5   174.0    1007                     
2015-08-08 00   15.0   174.0    1008                     
Winds are 10-min average.

Tropical cyclone tracks developed by Michael Bath using operational warnings and advisories and Google Maps.


[Australian Severe Weather index] [Copyright Notice] [Email Contacts] [Search This Site] [Privacy Policy]
Document: tropical_cyclone_201601.htm Updated: 2 May 2017